sensor_id;sensor_type;location;lat;lon;timestamp;pressure;altitude;pressure_sealevel;temperature;humidity
6218;BME280;3142;48.206;11.550;2023-01-09T00:00:07;94157.72;;;7.59;72.50
6218;BME280;3142;48.206;11.550;2023-01-09T00:02:36;94168.69;;;7.61;72.16
6218;BME280;3142;48.206;11.550;2023-01-09T00:05:05;94175.84;;;7.65;71.34
6218;BME280;3142;48.206;11.550;2023-01-09T00:07:32;94183.81;;;7.52;72.46
6218;BME280;3142;48.206;11.550;2023-01-09T00:09:58;94188.66;;;7.49;71.83
6218;BME280;3142;48.206;11.550;2023-01-09T00:12:25;94201.09;;;7.47;72.23
6218;BME280;3142;48.206;11.550;2023-01-09T00:14:51;94217.78;;;7.39;72.64
6218;BME280;3142;48.206;11.550;2023-01-09T00:17:18;94217.66;;;7.34;72.13
6218;BME280;3142;48.206;11.550;2023-01-09T00:19:45;94217.13;;;7.25;72.58
6218;BME280;3142;48.206;11.550;2023-01-09T00:22:12;94221.19;;;7.21;72.60
6218;BME280;3142;48.206;11.550;2023-01-09T00:24:38;94210.06;;;7.14;73.45
6218;BME280;3142;48.206;11.550;2023-01-09T00:27:05;94208.38;;;7.01;73.61
6218;BME280;3142;48.206;11.550;2023-01-09T00:29:31;94212.72;;;7.07;73.25
6218;BME280;3142;48.206;11.550;2023-01-09T00:31:58;94209.88;;;7.09;72.94
6218;BME280;3142;48.206;11.550;2023-01-09T00:34:24;94208.25;;;7.15;73.66
6218;BME280;3142;48.206;11.550;2023-01-09T00:36:52;94205.88;;;7.13;72.61
6218;BME280;3142;48.206;11.550;2023-01-09T00:39:20;94201.06;;;7.10;74.02
6218;BME280;3142;48.206;11.550;2023-01-09T00:41:50;94206.66;;;7.13;73.38
6218;BME280;3142;48.206;11.550;2023-01-09T00:44:30;94202.84;;;7.16;73.51
6218;BME280;3142;48.206;11.550;2023-01-09T00:47:10;94197.69;;;7.09;73.11
6218;BME280;3142;48.206;11.550;2023-01-09T00:49:38;94209.16;;;7.02;73.44
6218;BME280;3142;48.206;11.550;2023-01-09T00:52:09;94207.16;;;7.04;73.41
6218;BME280;3142;48.206;11.550;2023-01-09T00:54:37;94199.13;;;7.05;73.86
6218;BME280;3142;48.206;11.550;2023-01-09T00:57:04;94205.47;;;7.09;72.90
6218;BME280;3142;48.206;11.550;2023-01-09T00:59:31;94215.09;;;7.09;73.60
6218;BME280;3142;48.206;11.550;2023-01-09T01:01:58;94202.38;;;7.01;73.29
6218;BME280;3142;48.206;11.550;2023-01-09T01:04:24;94188.38;;;7.02;73.73
6218;BME280;3142;48.206;11.550;2023-01-09T01:07:15;94185.19;;;7.00;73.95
6218;BME280;3142;48.206;11.550;2023-01-09T01:09:59;94187.16;;;7.04;74.01
6218;BME280;3142;48.206;11.550;2023-01-09T01:12:26;94187.50;;;7.08;74.08
6218;BME280;3142;48.206;11.550;2023-01-09T01:14:52;94192.25;;;7.11;73.60
6218;BME280;3142;48.206;11.550;2023-01-09T01:17:18;94187.44;;;7.15;73.47
6218;BME280;3142;48.206;11.550;2023-01-09T01:19:45;94181.22;;;7.16;73.42
6218;BME280;3142;48.206;11.550;2023-01-09T01:22:11;94183.25;;;7.13;73.10
6218;BME280;3142;48.206;11.550;2023-01-09T01:24:39;94190.03;;;7.15;73.50
6218;BME280;3142;48.206;11.550;2023-01-09T01:27:06;94191.84;;;7.14;73.62
6218;BME280;3142;48.206;11.550;2023-01-09T01:29:32;94180.84;;;7.12;73.36
6218;BME280;3142;48.206;11.550;2023-01-09T01:31:58;94176.44;;;7.12;73.47
6218;BME280;3142;48.206;11.550;2023-01-09T01:34:27;94169.66;;;7.11;73.24
6218;BME280;3142;48.206;11.550;2023-01-09T01:36:53;94172.06;;;7.13;73.62
6218;BME280;3142;48.206;11.550;2023-01-09T01:39:20;94168.00;;;7.17;73.02
6218;BME280;3142;48.206;11.550;2023-01-09T01:41:48;94168.00;;;7.17;73.27
6218;BME280;3142;48.206;11.550;2023-01-09T01:47:18;94189.53;;;7.24;72.51
6218;BME280;3142;48.206;11.550;2023-01-09T01:49:47;94182.50;;;7.25;72.83
6218;BME280;3142;48.206;11.550;2023-01-09T01:52:14;94180.13;;;7.23;73.43
6218;BME280;3142;48.206;11.550;2023-01-09T01:54:42;94183.53;;;7.24;73.27
6218;BME280;3142;48.206;11.550;2023-01-09T01:57:10;94181.16;;;7.22;72.69
6218;BME280;3142;48.206;11.550;2023-01-09T01:59:39;94170.03;;;7.15;72.96
6218;BME280;3142;48.206;11.550;2023-01-09T02:02:06;94174.00;;;7.18;73.74
6218;BME280;3142;48.206;11.550;2023-01-09T02:04:35;94163.81;;;7.16;73.24
6218;BME280;3142;48.206;11.550;2023-01-09T02:07:06;94178.09;;;7.25;73.78
6218;BME280;3142;48.206;11.550;2023-01-09T02:09:34;94170.91;;;7.27;73.71
6218;BME280;3142;48.206;11.550;2023-01-09T02:12:14;94167.88;;;7.30;73.22
6218;BME280;3142;48.206;11.550;2023-01-09T02:14:43;94164.19;;;7.20;73.62
6218;BME280;3142;48.206;11.550;2023-01-09T02:17:16;94172.69;;;7.08;74.25
6218;BME280;3142;48.206;11.550;2023-01-09T02:23:02;94175.47;;;7.13;74.56
6218;BME280;3142;48.206;11.550;2023-01-09T02:25:47;94172.19;;;7.18;73.48
6218;BME280;3142;48.206;11.550;2023-01-09T02:28:35;94177.63;;;7.17;74.32
6218;BME280;3142;48.206;11.550;2023-01-09T02:31:14;94174.00;;;7.18;74.02
6218;BME280;3142;48.206;11.550;2023-01-09T02:33:49;94181.94;;;7.23;74.28
6218;BME280;3142;48.206;11.550;2023-01-09T02:36:27;94170.31;;;7.25;73.79
6218;BME280;3142;48.206;11.550;2023-01-09T02:39:11;94174.31;;;7.28;73.90
6218;BME280;3142;48.206;11.550;2023-01-09T02:41:45;94169.69;;;7.30;73.52
6218;BME280;3142;48.206;11.550;2023-01-09T02:44:20;94170.47;;;7.30;73.80
6218;BME280;3142;48.206;11.550;2023-01-09T02:47:00;94174.88;;;7.30;73.35
6218;BME280;3142;48.206;11.550;2023-01-09T02:49:27;94170.13;;;7.27;73.50
6218;BME280;3142;48.206;11.550;2023-01-09T02:52:03;94168.38;;;7.21;73.99
6218;BME280;3142;48.206;11.550;2023-01-09T02:54:44;94151.75;;;7.22;73.48
6218;BME280;3142;48.206;11.550;2023-01-09T02:57:28;94159.19;;;7.18;74.83
6218;BME280;3142;48.206;11.550;2023-01-09T03:00:07;94156.25;;;7.15;74.77
6218;BME280;3142;48.206;11.550;2023-01-09T03:02:40;94153.41;;;7.16;75.02
6218;BME280;3142;48.206;11.550;2023-01-09T03:05:14;94157.16;;;7.20;74.43
6218;BME280;3142;48.206;11.550;2023-01-09T03:07:46;94160.66;;;7.14;74.51
6218;BME280;3142;48.206;11.550;2023-01-09T03:10:19;94165.25;;;7.12;74.24
6218;BME280;3142;48.206;11.550;2023-01-09T03:12:51;94157.25;;;7.13;74.72
6218;BME280;3142;48.206;11.550;2023-01-09T03:15:21;94156.47;;;7.13;75.47
6218;BME280;3142;48.206;11.550;2023-01-09T03:17:51;94154.66;;;7.13;74.79
6218;BME280;3142;48.206;11.550;2023-01-09T03:20:20;94153.03;;;7.12;75.59
6218;BME280;3142;48.206;11.550;2023-01-09T03:22:53;94158.25;;;7.12;74.52
6218;BME280;3142;48.206;11.550;2023-01-09T03:25:20;94149.47;;;7.13;74.97
6218;BME280;3142;48.206;11.550;2023-01-09T03:27:48;94155.72;;;7.24;75.64
6218;BME280;3142;48.206;11.550;2023-01-09T03:30:16;94151.31;;;7.25;75.71
6218;BME280;3142;48.206;11.550;2023-01-09T03:32:42;94159.09;;;7.25;74.84
6218;BME280;3142;48.206;11.550;2023-01-09T03:35:10;94154.34;;;7.22;75.57
6218;BME280;3142;48.206;11.550;2023-01-09T03:37:37;94154.91;;;7.24;75.21
6218;BME280;3142;48.206;11.550;2023-01-09T03:40:04;94159.91;;;7.25;74.81
6218;BME280;3142;48.206;11.550;2023-01-09T03:42:31;94155.94;;;7.23;75.07
6218;BME280;3142;48.206;11.550;2023-01-09T03:44:57;94155.38;;;7.21;75.23
6218;BME280;3142;48.206;11.550;2023-01-09T03:47:23;94160.56;;;7.21;76.05
6218;BME280;3142;48.206;11.550;2023-01-09T03:49:50;94158.31;;;7.24;75.35
6218;BME280;3142;48.206;11.550;2023-01-09T03:52:18;94154.69;;;7.25;75.09
6218;BME280;3142;48.206;11.550;2023-01-09T03:54:44;94154.50;;;7.27;75.54
6218;BME280;3142;48.206;11.550;2023-01-09T03:57:11;94149.44;;;7.32;75.44
6218;BME280;3142;48.206;11.550;2023-01-09T03:59:37;94147.28;;;7.29;75.81
6218;BME280;3142;48.206;11.550;2023-01-09T04:02:04;94162.44;;;7.32;76.05
6218;BME280;3142;48.206;11.550;2023-01-09T04:04:30;94161.88;;;7.30;75.71
6218;BME280;3142;48.206;11.550;2023-01-09T04:06:57;94168.66;;;7.31;75.12
6218;BME280;3142;48.206;11.550;2023-01-09T04:09:24;94172.28;;;7.30;76.40
6218;BME280;3142;48.206;11.550;2023-01-09T04:11:51;94159.63;;;7.33;75.44
6218;BME280;3142;48.206;11.550;2023-01-09T04:14:17;94155.22;;;7.34;76.14
6218;BME280;3142;48.206;11.550;2023-01-09T04:16:44;94161.66;;;7.31;76.04
6218;BME280;3142;48.206;11.550;2023-01-09T04:19:10;94165.97;;;7.37;76.57
6218;BME280;3142;48.206;11.550;2023-01-09T04:21:36;94174.94;;;7.41;75.91
6218;BME280;3142;48.206;11.550;2023-01-09T04:24:04;94184.47;;;7.48;76.84
6218;BME280;3142;48.206;11.550;2023-01-09T04:26:32;94191.25;;;7.49;76.72
6218;BME280;3142;48.206;11.550;2023-01-09T04:28:58;94198.78;;;7.57;76.58
6218;BME280;3142;48.206;11.550;2023-01-09T04:31:25;94209.53;;;7.60;76.59
6218;BME280;3142;48.206;11.550;2023-01-09T04:33:52;94205.94;;;7.61;77.02
6218;BME280;3142;48.206;11.550;2023-01-09T04:36:18;94214.09;;;7.65;76.58
6218;BME280;3142;48.206;11.550;2023-01-09T04:38:44;94216.06;;;7.69;76.35
6218;BME280;3142;48.206;11.550;2023-01-09T04:41:11;94215.03;;;7.70;77.02
6218;BME280;3142;48.206;11.550;2023-01-09T04:43:59;94221.03;;;7.71;76.94
6218;BME280;3142;48.206;11.550;2023-01-09T04:46:25;94231.00;;;7.74;77.22
6218;BME280;3142;48.206;11.550;2023-01-09T04:48:52;94236.34;;;7.79;77.25
6218;BME280;3142;48.206;11.550;2023-01-09T04:51:18;94234.53;;;7.80;77.42
6218;BME280;3142;48.206;11.550;2023-01-09T04:53:45;94236.28;;;7.86;77.43
6218;BME280;3142;48.206;11.550;2023-01-09T04:56:11;94244.88;;;7.86;77.65
6218;BME280;3142;48.206;11.550;2023-01-09T04:58:38;94245.00;;;7.91;77.72
6218;BME280;3142;48.206;11.550;2023-01-09T05:01:05;94251.00;;;7.92;77.42
6218;BME280;3142;48.206;11.550;2023-01-09T05:03:32;94247.56;;;7.98;77.76
6218;BME280;3142;48.206;11.550;2023-01-09T05:05:58;94255.94;;;8.00;77.73
6218;BME280;3142;48.206;11.550;2023-01-09T05:08:25;94260.69;;;8.03;78.46
6218;BME280;3142;48.206;11.550;2023-01-09T05:10:51;94252.22;;;8.08;78.35
6218;BME280;3142;48.206;11.550;2023-01-09T05:13:17;94267.78;;;8.14;77.27
6218;BME280;3142;48.206;11.550;2023-01-09T05:15:44;94272.88;;;8.09;76.87
6218;BME280;3142;48.206;11.550;2023-01-09T05:18:12;94289.63;;;8.13;77.78
6218;BME280;3142;48.206;11.550;2023-01-09T05:20:38;94288.84;;;8.13;77.51
6218;BME280;3142;48.206;11.550;2023-01-09T05:23:04;94301.88;;;8.13;76.42
6218;BME280;3142;48.206;11.550;2023-01-09T05:25:31;94303.78;;;8.17;76.74
6218;BME280;3142;48.206;11.550;2023-01-09T05:27:57;94299.38;;;8.18;77.29
6218;BME280;3142;48.206;11.550;2023-01-09T05:30:25;94312.41;;;8.18;76.58
6218;BME280;3142;48.206;11.550;2023-01-09T05:32:52;94326.81;;;8.20;76.15
6218;BME280;3142;48.206;11.550;2023-01-09T05:35:19;94322.97;;;8.23;75.98
6218;BME280;3142;48.206;11.550;2023-01-09T05:37:46;94338.81;;;8.21;75.93
6218;BME280;3142;48.206;11.550;2023-01-09T05:40:12;94338.00;;;8.21;75.92
6218;BME280;3142;48.206;11.550;2023-01-09T05:42:41;94340.56;;;8.27;76.90
6218;BME280;3142;48.206;11.550;2023-01-09T05:45:09;94347.88;;;8.19;76.73
6218;BME280;3142;48.206;11.550;2023-01-09T05:47:36;94340.50;;;8.16;77.03
6218;BME280;3142;48.206;11.550;2023-01-09T05:50:03;94355.91;;;8.17;75.32
6218;BME280;3142;48.206;11.550;2023-01-09T05:52:31;94384.41;;;8.12;74.65
6218;BME280;3142;48.206;11.550;2023-01-09T05:54:57;94355.75;;;8.12;75.24
6218;BME280;3142;48.206;11.550;2023-01-09T05:57:24;94359.38;;;8.11;75.01
6218;BME280;3142;48.206;11.550;2023-01-09T05:59:50;94381.88;;;8.06;75.44
6218;BME280;3142;48.206;11.550;2023-01-09T06:02:17;94374.44;;;8.09;74.20
6218;BME280;3142;48.206;11.550;2023-01-09T06:04:43;94376.38;;;8.14;74.26
6218;BME280;3142;48.206;11.550;2023-01-09T06:07:09;94370.22;;;8.08;74.20
6218;BME280;3142;48.206;11.550;2023-01-09T06:09:37;94358.72;;;8.16;73.13
6218;BME280;3142;48.206;11.550;2023-01-09T06:12:04;94372.81;;;8.08;73.15
6218;BME280;3142;48.206;11.550;2023-01-09T06:14:30;94384.63;;;8.11;72.17
6218;BME280;3142;48.206;11.550;2023-01-09T06:16:57;94383.63;;;8.12;72.45
6218;BME280;3142;48.206;11.550;2023-01-09T06:19:23;94404.69;;;8.10;70.99
6218;BME280;3142;48.206;11.550;2023-01-09T06:21:50;94399.25;;;8.12;69.86
6218;BME280;3142;48.206;11.550;2023-01-09T06:24:17;94404.06;;;8.08;69.11
6218;BME280;3142;48.206;11.550;2023-01-09T06:26:45;94404.28;;;8.07;68.56
6218;BME280;3142;48.206;11.550;2023-01-09T06:29:12;94420.72;;;8.07;69.55
6218;BME280;3142;48.206;11.550;2023-01-09T06:31:38;94430.34;;;8.07;68.90
6218;BME280;3142;48.206;11.550;2023-01-09T06:34:05;94427.97;;;8.05;68.91
6218;BME280;3142;48.206;11.550;2023-01-09T06:36:31;94441.19;;;8.03;68.39
6218;BME280;3142;48.206;11.550;2023-01-09T06:38:57;94462.03;;;8.03;68.57
6218;BME280;3142;48.206;11.550;2023-01-09T06:41:24;94443.44;;;8.00;68.31
6218;BME280;3142;48.206;11.550;2023-01-09T06:43:52;94442.44;;;8.01;68.67
6218;BME280;3142;48.206;11.550;2023-01-09T06:46:18;94449.88;;;7.97;68.78
6218;BME280;3142;48.206;11.550;2023-01-09T06:48:44;94461.94;;;7.92;68.86
6218;BME280;3142;48.206;11.550;2023-01-09T06:51:11;94476.75;;;7.91;68.75
6218;BME280;3142;48.206;11.550;2023-01-09T06:53:37;94484.22;;;7.88;69.36
6218;BME280;3142;48.206;11.550;2023-01-09T06:56:04;94459.03;;;7.82;69.42
6218;BME280;3142;48.206;11.550;2023-01-09T06:58:31;94464.25;;;7.82;70.07
6218;BME280;3142;48.206;11.550;2023-01-09T07:00:59;94464.25;;;7.82;70.18
6218;BME280;3142;48.206;11.550;2023-01-09T07:03:25;94473.78;;;7.88;69.47
6218;BME280;3142;48.206;11.550;2023-01-09T07:05:52;94465.63;;;7.84;69.85
6218;BME280;3142;48.206;11.550;2023-01-09T07:08:18;94477.84;;;7.84;69.11
6218;BME280;3142;48.206;11.550;2023-01-09T07:10:44;94487.06;;;7.80;69.02
6218;BME280;3142;48.206;11.550;2023-01-09T07:13:11;94500.50;;;7.77;69.80
6218;BME280;3142;48.206;11.550;2023-01-09T07:15:37;94498.69;;;7.77;70.21
6218;BME280;3142;48.206;11.550;2023-01-09T07:18:05;94517.78;;;7.71;70.66
6218;BME280;3142;48.206;11.550;2023-01-09T07:20:32;94516.56;;;7.73;69.87
6218;BME280;3142;48.206;11.550;2023-01-09T07:22:58;94516.56;;;7.73;69.33
6218;BME280;3142;48.206;11.550;2023-01-09T07:25:24;94518.41;;;7.66;70.08
6218;BME280;3142;48.206;11.550;2023-01-09T07:27:51;94525.00;;;7.69;70.02
6218;BME280;3142;48.206;11.550;2023-01-09T07:30:17;94550.84;;;7.64;70.05
6218;BME280;3142;48.206;11.550;2023-01-09T07:32:44;94536.25;;;7.63;69.49
6218;BME280;3142;48.206;11.550;2023-01-09T07:35:12;94548.84;;;7.66;70.21
6218;BME280;3142;48.206;11.550;2023-01-09T07:37:38;94573.09;;;7.60;70.16
6218;BME280;3142;48.206;11.550;2023-01-09T07:40:06;94568.53;;;7.55;71.36
6218;BME280;3142;48.206;11.550;2023-01-09T07:42:32;94576.78;;;7.46;72.27
6218;BME280;3142;48.206;11.550;2023-01-09T07:44:59;94589.22;;;7.37;72.14
6218;BME280;3142;48.206;11.550;2023-01-09T07:47:25;94578.63;;;7.38;72.22
6218;BME280;3142;48.206;11.550;2023-01-09T07:49:51;94589.66;;;7.34;71.52
6218;BME280;3142;48.206;11.550;2023-01-09T07:52:19;94592.47;;;7.32;72.62
6218;BME280;3142;48.206;11.550;2023-01-09T07:54:46;94591.06;;;7.30;73.52
6218;BME280;3142;48.206;11.550;2023-01-09T07:57:12;94592.47;;;7.32;72.71
6218;BME280;3142;48.206;11.550;2023-01-09T07:59:39;94587.53;;;7.11;73.01
6218;BME280;3142;48.206;11.550;2023-01-09T08:02:05;94590.13;;;7.11;73.03
6218;BME280;3142;48.206;11.550;2023-01-09T08:04:33;94596.94;;;7.12;73.15
6218;BME280;3142;48.206;11.550;2023-01-09T08:06:59;94596.94;;;7.12;73.69
6218;BME280;3142;48.206;11.550;2023-01-09T08:09:28;94608.75;;;7.15;73.94
6218;BME280;3142;48.206;11.550;2023-01-09T08:11:55;94625.16;;;7.08;73.25
6218;BME280;3142;48.206;11.550;2023-01-09T08:14:21;94626.16;;;7.07;73.88
6218;BME280;3142;48.206;11.550;2023-01-09T08:16:48;94628.16;;;7.05;74.72
6218;BME280;3142;48.206;11.550;2023-01-09T08:19:14;94622.00;;;7.00;74.92
6218;BME280;3142;48.206;11.550;2023-01-09T08:21:41;94622.38;;;6.97;75.45
6218;BME280;3142;48.206;11.550;2023-01-09T08:24:08;94617.78;;;6.99;75.06
6218;BME280;3142;48.206;11.550;2023-01-09T08:26:36;94622.19;;;6.98;75.55
6218;BME280;3142;48.206;11.550;2023-01-09T08:29:02;94625.19;;;7.02;75.83
6218;BME280;3142;48.206;11.550;2023-01-09T08:31:30;94624.59;;;7.00;76.23
6218;BME280;3142;48.206;11.550;2023-01-09T08:33:57;94635.19;;;7.05;75.65
6218;BME280;3142;48.206;11.550;2023-01-09T08:36:23;94637.94;;;7.10;75.85
6218;BME280;3142;48.206;11.550;2023-01-09T08:38:50;94637.75;;;7.11;75.55
6218;BME280;3142;48.206;11.550;2023-01-09T08:41:16;94644.94;;;7.16;75.89
6218;BME280;3142;48.206;11.550;2023-01-09T08:44:02;94657.53;;;7.19;76.52
6218;BME280;3142;48.206;11.550;2023-01-09T08:46:55;94645.72;;;7.30;76.27
6218;BME280;3142;48.206;11.550;2023-01-09T08:49:30;94656.31;;;7.28;75.40
6218;BME280;3142;48.206;11.550;2023-01-09T08:51:57;94656.31;;;7.28;75.08
6218;BME280;3142;48.206;11.550;2023-01-09T08:54:23;94662.91;;;7.24;75.35
6218;BME280;3142;48.206;11.550;2023-01-09T08:56:49;94646.13;;;7.20;75.08
6218;BME280;3142;48.206;11.550;2023-01-09T08:59:17;94653.94;;;7.20;75.58
6218;BME280;3142;48.206;11.550;2023-01-09T09:01:44;94656.31;;;7.22;75.43
6218;BME280;3142;48.206;11.550;2023-01-09T09:04:10;94661.13;;;7.25;74.03
6218;BME280;3142;48.206;11.550;2023-01-09T09:06:36;94650.31;;;7.28;73.42
6218;BME280;3142;48.206;11.550;2023-01-09T09:09:03;94645.72;;;7.30;71.56
6218;BME280;3142;48.206;11.550;2023-01-09T09:11:31;94657.69;;;7.37;69.65
6218;BME280;3142;48.206;11.550;2023-01-09T09:13:58;94657.03;;;7.49;68.13
6218;BME280;3142;48.206;11.550;2023-01-09T09:16:26;94660.81;;;7.53;66.11
6218;BME280;3142;48.206;11.550;2023-01-09T09:18:53;94651.63;;;7.57;65.17
6218;BME280;3142;48.206;11.550;2023-01-09T09:21:19;94645.75;;;7.68;64.67
6218;BME280;3142;48.206;11.550;2023-01-09T09:23:45;94650.34;;;7.72;63.36
6218;BME280;3142;48.206;11.550;2023-01-09T09:26:12;94668.34;;;7.74;63.43
6218;BME280;3142;48.206;11.550;2023-01-09T09:28:38;94650.13;;;7.67;61.54
6218;BME280;3142;48.206;11.550;2023-01-09T09:31:05;94661.41;;;7.61;61.95
6218;BME280;3142;48.206;11.550;2023-01-09T09:33:33;94666.00;;;7.59;61.39
6218;BME280;3142;48.206;11.550;2023-01-09T09:35:59;94666.59;;;7.61;62.59
6218;BME280;3142;48.206;11.550;2023-01-09T09:38:26;94667.44;;;7.55;61.23
6218;BME280;3142;48.206;11.550;2023-01-09T09:41:09;94673.66;;;7.48;61.87
6218;BME280;3142;48.206;11.550;2023-01-09T09:44:12;94683.22;;;7.60;61.05
6218;BME280;3142;48.206;11.550;2023-01-09T09:47:01;94693.63;;;7.54;61.30
6218;BME280;3142;48.206;11.550;2023-01-09T09:49:40;94681.41;;;7.61;60.86
6218;BME280;3142;48.206;11.550;2023-01-09T09:52:18;94678.19;;;7.65;60.68
6218;BME280;3142;48.206;11.550;2023-01-09T09:54:51;94687.81;;;7.65;60.04
6218;BME280;3142;48.206;11.550;2023-01-09T09:57:21;94676.59;;;7.64;61.27
6218;BME280;3142;48.206;11.550;2023-01-09T09:59:50;94665.81;;;7.61;60.69
6218;BME280;3142;48.206;11.550;2023-01-09T10:02:24;94675.41;;;7.54;61.83
6218;BME280;3142;48.206;11.550;2023-01-09T10:04:58;94677.22;;;7.60;60.83
6218;BME280;3142;48.206;11.550;2023-01-09T10:07:28;94671.22;;;7.59;60.66
6218;BME280;3142;48.206;11.550;2023-01-09T10:09:59;94664.84;;;7.55;60.87
6218;BME280;3142;48.206;11.550;2023-01-09T10:12:27;94658.03;;;7.54;61.34
6218;BME280;3142;48.206;11.550;2023-01-09T10:14:55;94663.03;;;7.56;61.01
6218;BME280;3142;48.206;11.550;2023-01-09T10:17:36;94650.81;;;7.50;61.32
6218;BME280;3142;48.206;11.550;2023-01-09T10:20:26;94652.63;;;7.49;60.52
6218;BME280;3142;48.206;11.550;2023-01-09T10:23:07;94648.41;;;7.55;61.48
6218;BME280;3142;48.206;11.550;2023-01-09T10:25:43;94651.16;;;7.66;60.96
6218;BME280;3142;48.206;11.550;2023-01-09T10:28:25;94654.16;;;7.70;59.92
6218;BME280;3142;48.206;11.550;2023-01-09T10:30:57;94661.19;;;7.63;60.42
6218;BME280;3142;48.206;11.550;2023-01-09T10:33:34;94668.34;;;7.67;60.45
6218;BME280;3142;48.206;11.550;2023-01-09T10:36:27;94663.16;;;7.67;61.57
6218;BME280;3142;48.206;11.550;2023-01-09T10:39:00;94658.34;;;7.71;61.10
6218;BME280;3142;48.206;11.550;2023-01-09T10:41:33;94668.50;;;7.79;60.97
6218;BME280;3142;48.206;11.550;2023-01-09T10:44:06;94658.72;;;7.81;60.99
6218;BME280;3142;48.206;11.550;2023-01-09T10:46:44;94662.06;;;7.88;60.10
6218;BME280;3142;48.206;11.550;2023-01-09T10:49:16;94652.44;;;7.89;60.18
6218;BME280;3142;48.206;11.550;2023-01-09T10:51:46;94654.84;;;7.90;59.58
6218;BME280;3142;48.206;11.550;2023-01-09T10:54:16;94657.03;;;7.93;61.23
6218;BME280;3142;48.206;11.550;2023-01-09T10:56:52;94652.00;;;7.98;59.68
6218;BME280;3142;48.206;11.550;2023-01-09T10:59:19;94658.63;;;7.94;59.49
6218;BME280;3142;48.206;11.550;2023-01-09T11:01:46;94654.41;;;7.93;58.89
6218;BME280;3142;48.206;11.550;2023-01-09T11:04:19;94655.84;;;7.89;59.27
6218;BME280;3142;48.206;11.550;2023-01-09T11:06:54;94653.81;;;7.91;59.41
6218;BME280;3142;48.206;11.550;2023-01-09T11:09:22;94646.22;;;7.96;59.19
6218;BME280;3142;48.206;11.550;2023-01-09T11:11:48;94647.81;;;7.97;59.19
6218;BME280;3142;48.206;11.550;2023-01-09T11:14:16;94649.03;;;7.95;58.03
6218;BME280;3142;48.206;11.550;2023-01-09T11:16:53;94646.41;;;7.95;59.07
6218;BME280;3142;48.206;11.550;2023-01-09T11:19:20;94651.22;;;7.91;58.99
6218;BME280;3142;48.206;11.550;2023-01-09T11:21:47;94643.41;;;7.91;58.50
6218;BME280;3142;48.206;11.550;2023-01-09T11:24:26;94648.63;;;7.91;57.46
6218;BME280;3142;48.206;11.550;2023-01-09T11:27:18;94629.22;;;7.87;57.82
6218;BME280;3142;48.206;11.550;2023-01-09T11:30:13;94636.97;;;7.94;57.94
6218;BME280;3142;48.206;11.550;2023-01-09T11:32:41;94642.81;;;7.96;58.61
6218;BME280;3142;48.206;11.550;2023-01-09T11:35:16;94638.75;;;8.00;58.69
6218;BME280;3142;48.206;11.550;2023-01-09T11:37:44;94649.56;;;8.03;57.42
6218;BME280;3142;48.206;11.550;2023-01-09T11:40:18;94634.72;;;8.04;57.14
6218;BME280;3142;48.206;11.550;2023-01-09T11:43:02;94641.94;;;8.09;56.87
6218;BME280;3142;48.206;11.550;2023-01-09T11:45:31;94634.47;;;8.12;56.54
6218;BME280;3142;48.206;11.550;2023-01-09T11:47:59;94646.28;;;8.15;57.19
6218;BME280;3142;48.206;11.550;2023-01-09T11:50:29;94639.09;;;8.10;56.95
6218;BME280;3142;48.206;11.550;2023-01-09T11:53:11;94640.50;;;8.13;56.92
6218;BME280;3142;48.206;11.550;2023-01-09T11:55:39;94644.03;;;8.18;56.31
6218;BME280;3142;48.206;11.550;2023-01-09T11:58:11;94655.91;;;8.14;56.21
6218;BME280;3142;48.206;11.550;2023-01-09T12:00:45;94650.84;;;8.19;56.12
6218;BME280;3142;48.206;11.550;2023-01-09T12:03:19;94653.25;;;8.21;56.12
6218;BME280;3142;48.206;11.550;2023-01-09T12:05:56;94657.06;;;8.18;56.23
6218;BME280;3142;48.206;11.550;2023-01-09T12:08:38;94642.41;;;8.24;55.73
6218;BME280;3142;48.206;11.550;2023-01-09T12:11:20;94633.38;;;8.26;55.37
6218;BME280;3142;48.206;11.550;2023-01-09T12:14:04;94641.78;;;8.28;56.50
6218;BME280;3142;48.206;11.550;2023-01-09T12:16:35;94636.53;;;8.35;55.76
6218;BME280;3142;48.206;11.550;2023-01-09T12:19:15;94644.16;;;8.37;54.94
6218;BME280;3142;48.206;11.550;2023-01-09T12:21:46;94651.19;;;8.36;55.29
6218;BME280;3142;48.206;11.550;2023-01-09T12:24:31;94643.38;;;8.36;54.66
6218;BME280;3142;48.206;11.550;2023-01-09T12:27:12;94651.78;;;8.38;55.43
6218;BME280;3142;48.206;11.550;2023-01-09T12:29:54;94650.53;;;8.41;55.44
6218;BME280;3142;48.206;11.550;2023-01-09T12:32:34;94652.94;;;8.42;54.67
6218;BME280;3142;48.206;11.550;2023-01-09T12:35:08;94654.97;;;8.40;55.17
6218;BME280;3142;48.206;11.550;2023-01-09T12:38:03;94673.81;;;8.36;55.39
6218;BME280;3142;48.206;11.550;2023-01-09T12:40:51;94661.63;;;8.36;55.97
6218;BME280;3142;48.206;11.550;2023-01-09T12:43:24;94662.41;;;8.37;55.80
6218;BME280;3142;48.206;11.550;2023-01-09T12:46:01;94661.78;;;8.41;56.18
6218;BME280;3142;48.206;11.550;2023-01-09T12:48:45;94664.38;;;8.41;56.02
6218;BME280;3142;48.206;11.550;2023-01-09T12:51:28;94663.34;;;8.42;54.57
6218;BME280;3142;48.206;11.550;2023-01-09T12:53:59;94653.72;;;8.43;54.69
6218;BME280;3142;48.206;11.550;2023-01-09T12:56:30;94673.34;;;8.45;55.93
6218;BME280;3142;48.206;11.550;2023-01-09T12:59:06;94665.53;;;8.45;55.34
6218;BME280;3142;48.206;11.550;2023-01-09T13:01:41;94664.53;;;8.46;55.81
6218;BME280;3142;48.206;11.550;2023-01-09T13:04:12;94659.09;;;8.48;55.90
6218;BME280;3142;48.206;11.550;2023-01-09T13:06:44;94656.09;;;8.51;55.30
6218;BME280;3142;48.206;11.550;2023-01-09T13:09:19;94654.28;;;8.51;54.94
6218;BME280;3142;48.206;11.550;2023-01-09T13:11:50;94652.88;;;8.49;55.50
6218;BME280;3142;48.206;11.550;2023-01-09T13:14:24;94663.09;;;8.50;56.39
6218;BME280;3142;48.206;11.550;2023-01-09T13:16:54;94667.91;;;8.53;54.85
6218;BME280;3142;48.206;11.550;2023-01-09T13:19:25;94652.06;;;8.48;54.69
6218;BME280;3142;48.206;11.550;2023-01-09T13:21:52;94660.53;;;8.44;55.44
6218;BME280;3142;48.206;11.550;2023-01-09T13:24:23;94655.13;;;8.45;54.96
6218;BME280;3142;48.206;11.550;2023-01-09T13:26:55;94651.13;;;8.43;56.22
6218;BME280;3142;48.206;11.550;2023-01-09T13:29:28;94642.50;;;8.42;56.08
6218;BME280;3142;48.206;11.550;2023-01-09T13:35:04;94649.56;;;8.35;56.16
6218;BME280;3142;48.206;11.550;2023-01-09T13:37:32;94646.56;;;8.31;56.15
6218;BME280;3142;48.206;11.550;2023-01-09T13:40:02;94639.31;;;8.33;55.77
6218;BME280;3142;48.206;11.550;2023-01-09T13:42:29;94645.97;;;8.29;55.28
6218;BME280;3142;48.206;11.550;2023-01-09T13:45:18;94639.75;;;8.30;55.39
6218;BME280;3142;48.206;11.550;2023-01-09T13:47:45;94640.19;;;8.27;55.05